Time;durP1;ratioP1;P1;durP2;ratioP2;P2;SDS_P1;SDS_P2;PMS_P1;PMS_P2;Temp;Humidity;BMP_temperature;BMP_pressure;BME280_temperature;BME280_humidity;BME280_pressure;Samples;Min_cycle;Max_cycle;Signal;HPM_P1;HPM_P2
2021/07/03 00:01:59;;;;;;;20.00;16.77;;;14.40;99.90;;;;;;5046994;28;20190;-37
2021/07/03 00:04:25;;;;;;;23.03;17.93;;;14.40;99.90;;;;;;5045159;28;20194;-38
2021/07/03 00:06:51;;;;;;;20.20;16.10;;;14.40;99.90;;;;;;5046796;28;20455;-38
2021/07/03 00:09:16;;;;;;;18.97;16.93;;;14.40;99.90;;;;;;5045248;28;20941;-37
2021/07/03 00:11:44;;;;;;;21.70;17.43;;;14.40;99.90;;;;;;5037821;28;20663;-37
2021/07/03 00:14:10;;;;;;;20.10;17.77;;;14.40;99.90;;;;;;5046008;28;20215;-37
2021/07/03 00:16:36;;;;;;;20.57;17.70;;;14.40;99.90;;;;;;5046935;28;20570;-37
2021/07/03 00:19:03;;;;;;;20.20;16.40;;;14.40;99.90;;;;;;5046637;28;20966;-37
2021/07/03 00:21:29;;;;;;;17.43;15.63;;;14.40;99.90;;;;;;5046773;28;20907;-37
2021/07/03 00:23:55;;;;;;;21.30;17.20;;;14.30;99.90;;;;;;5046221;28;20548;-37
2021/07/03 00:26:21;;;;;;;22.20;18.70;;;14.20;99.90;;;;;;5040251;28;20417;-37
2021/07/03 00:28:46;;;;;;;20.30;17.67;;;14.20;99.90;;;;;;5046185;28;20424;-37
2021/07/03 00:31:12;;;;;;;21.50;16.70;;;14.20;99.90;;;;;;5045361;28;20743;-37
2021/07/03 00:33:38;;;;;;;22.90;19.67;;;14.10;99.90;;;;;;5044605;28;20189;-38
2021/07/03 00:36:04;;;;;;;22.90;18.37;;;14.10;99.90;;;;;;5046245;28;20196;-38
2021/07/03 00:38:29;;;;;;;22.10;18.90;;;14.10;99.90;;;;;;5046184;28;20213;-37
2021/07/03 00:40:55;;;;;;;21.90;18.53;;;14.10;99.90;;;;;;5037062;28;20486;-38
2021/07/03 00:43:21;;;;;;;24.50;19.90;;;14.10;99.90;;;;;;5045012;28;20673;-38
2021/07/03 00:45:46;;;;;;;22.47;19.10;;;14.00;99.90;;;;;;5046375;28;20216;-37
2021/07/03 00:48:12;;;;;;;28.30;21.87;;;14.00;99.90;;;;;;5046154;28;20470;-38
2021/07/03 00:50:38;;;;;;;26.23;21.20;;;14.10;99.90;;;;;;5045159;28;20660;-38
2021/07/03 00:53:04;;;;;;;25.40;20.60;;;14.20;99.90;;;;;;5045463;28;20684;-38
2021/07/03 00:55:31;;;;;;;22.87;19.47;;;14.30;99.90;;;;;;5036449;28;20425;-38
2021/07/03 00:57:57;;;;;;;21.80;19.50;;;14.30;99.90;;;;;;5044124;28;20969;-37
2021/07/03 01:00:23;;;;;;;20.60;17.63;;;14.30;99.90;;;;;;5049796;28;20539;-38
2021/07/03 01:02:49;;;;;;;23.70;18.83;;;14.30;99.90;;;;;;5050004;28;20564;-37
2021/07/03 01:05:17;;;;;;;22.87;18.10;;;14.30;99.90;;;;;;5050007;28;20424;-38
2021/07/03 01:07:43;;;;;;;18.67;16.67;;;14.40;99.90;;;;;;5050376;28;20839;-37
2021/07/03 01:10:23;;;;;;;22.73;17.90;;;14.40;99.90;;;;;;5045034;28;20991;-37
2021/07/03 01:12:50;;;;;;;18.13;15.90;;;14.40;99.90;;;;;;5039793;28;20532;-38
2021/07/03 01:15:17;;;;;;;19.97;17.87;;;14.40;99.90;;;;;;5049918;28;20420;-38
2021/07/03 01:17:43;;;;;;;19.80;17.70;;;14.40;99.90;;;;;;5049980;28;20993;-38
2021/07/03 01:20:10;;;;;;;19.10;16.33;;;14.40;99.90;;;;;;5050132;28;20577;-38
2021/07/03 01:22:37;;;;;;;18.37;16.27;;;14.30;99.90;;;;;;5050011;28;20424;-37
2021/07/03 01:25:03;;;;;;;19.93;16.43;;;14.20;99.90;;;;;;5045943;28;20461;-37
2021/07/03 01:27:29;;;;;;;25.47;17.10;;;14.10;99.90;;;;;;5040331;28;20448;-37
2021/07/03 01:29:54;;;;;;;20.10;17.67;;;14.10;99.90;;;;;;5048228;28;20455;-37
2021/07/03 01:32:22;;;;;;;19.57;17.20;;;14.20;99.90;;;;;;5049973;28;20288;-37
2021/07/03 01:34:48;;;;;;;17.90;15.70;;;14.10;99.90;;;;;;5049019;28;20240;-37
2021/07/03 01:37:14;;;;;;;19.10;16.00;;;14.00;99.90;;;;;;5049960;28;20962;-38
2021/07/03 01:39:40;;;;;;;19.33;16.60;;;13.90;99.90;;;;;;5049743;28;20424;-38
2021/07/03 01:42:07;;;;;;;18.53;16.20;;;13.80;99.90;;;;;;5038424;28;20589;-37
2021/07/03 01:44:34;;;;;;;20.27;17.30;;;13.80;99.90;;;;;;5047585;28;20455;-38
2021/07/03 01:47:02;;;;;;;20.83;16.67;;;13.80;99.90;;;;;;5049333;28;20420;-37
2021/07/03 01:49:29;;;;;;;18.30;16.40;;;13.70;99.90;;;;;;5049806;28;20492;-37
2021/07/03 01:51:55;;;;;;;20.67;17.20;;;13.70;99.90;;;;;;5047958;28;20490;-37
2021/07/03 01:54:21;;;;;;;20.07;17.53;;;13.70;99.90;;;;;;5048625;28;20818;-37
2021/07/03 01:56:58;;;;;;;19.80;16.13;;;13.60;99.90;;;;;;5036921;28;20855;-37
2021/07/03 01:59:28;;;;;;;19.73;15.40;;;13.60;99.90;;;;;;5046018;28;20432;-38
2021/07/03 02:01:54;;;;;;;18.43;16.40;;;13.60;99.90;;;;;;5048101;28;20433;-37
2021/07/03 02:04:21;;;;;;;22.07;17.40;;;13.60;99.90;;;;;;5048531;28;20954;-38
2021/07/03 02:06:47;;;;;;;20.10;17.13;;;13.60;99.90;;;;;;5049294;28;20510;-37
2021/07/03 02:09:16;;;;;;;22.37;17.87;;;13.60;99.90;;;;;;5049017;28;20455;-37
2021/07/03 02:11:42;;;;;;;22.63;17.47;;;13.60;99.90;;;;;;5036652;28;20464;-37
2021/07/03 02:14:07;;;;;;;20.80;17.23;;;13.70;99.90;;;;;;5048507;28;20417;-37
2021/07/03 02:16:34;;;;;;;20.40;16.50;;;13.70;99.90;;;;;;5047423;28;20938;-38
2021/07/03 02:19:01;;;;;;;17.80;15.70;;;13.70;99.90;;;;;;5048728;28;20543;-37
2021/07/03 02:21:27;;;;;;;16.87;15.07;;;13.60;99.90;;;;;;5048767;28;20456;-38
2021/07/03 02:23:52;;;;;;;20.50;16.00;;;13.60;99.90;;;;;;5048402;28;20832;-37
2021/07/03 02:26:20;;;;;;;18.73;15.73;;;13.60;99.90;;;;;;5039853;28;20436;-37
2021/07/03 02:28:45;;;;;;;18.90;15.87;;;13.60;99.90;;;;;;5047048;28;20567;-38
2021/07/03 02:31:11;;;;;;;18.87;15.17;;;13.60;99.90;;;;;;5049221;28;20428;-37
2021/07/03 02:33:37;;;;;;;18.80;16.80;;;13.50;99.90;;;;;;5027821;28;20713;-37
2021/07/03 02:36:03;;;;;;;20.53;17.80;;;13.40;99.90;;;;;;5048822;28;20660;-37
2021/07/03 02:38:28;;;;;;;19.30;16.07;;;13.40;99.90;;;;;;5048355;28;20249;-37
2021/07/03 02:40:54;;;;;;;19.23;17.13;;;13.30;99.90;;;;;;5042471;28;20194;-37
2021/07/03 02:43:20;;;;;;;20.40;16.47;;;13.30;99.90;;;;;;5043403;28;20620;-37
2021/07/03 02:45:45;;;;;;;22.37;15.30;;;13.30;99.90;;;;;;5048497;28;20258;-37
2021/07/03 02:48:11;;;;;;;20.57;15.23;;;13.30;99.90;;;;;;5047801;28;20193;-38
2021/07/03 02:50:37;;;;;;;23.30;16.70;;;13.20;99.90;;;;;;5048316;28;20197;-37
2021/07/03 02:53:02;;;;;;;18.37;15.20;;;13.10;99.90;;;;;;5047758;28;20208;-37
2021/07/03 02:55:28;;;;;;;19.20;15.47;;;13.10;99.90;;;;;;5046101;28;20189;-38
2021/07/03 02:57:54;;;;;;;18.50;16.60;;;13.10;99.90;;;;;;5041713;28;20304;-38
2021/07/03 03:00:21;;;;;;;19.67;15.53;;;13.10;99.90;;;;;;5046787;28;20306;-37
2021/07/03 03:02:47;;;;;;;17.70;15.80;;;13.10;99.90;;;;;;5047340;28;20679;-37
2021/07/03 03:05:14;;;;;;;18.40;16.20;;;13.00;99.90;;;;;;5048298;28;20455;-38
2021/07/03 03:07:41;;;;;;;25.50;18.50;;;13.00;99.90;;;;;;5048351;28;20193;-37
2021/07/03 03:10:09;;;;;;;18.77;16.10;;;13.00;99.90;;;;;;5048132;28;20440;-37
2021/07/03 03:12:34;;;;;;;20.93;17.20;;;13.10;99.90;;;;;;5034944;28;20527;-37
2021/07/03 03:15:01;;;;;;;19.00;16.00;;;13.00;99.90;;;;;;5047301;28;20511;-38
2021/07/03 03:17:26;;;;;;;24.20;17.50;;;13.00;99.90;;;;;;5047565;28;20213;-37
2021/07/03 03:19:52;;;;;;;21.00;17.20;;;12.90;99.90;;;;;;5047525;28;20432;-38
2021/07/03 03:22:18;;;;;;;21.37;16.97;;;12.90;99.90;;;;;;5045719;28;20346;-38
2021/07/03 03:24:45;;;;;;;18.90;16.20;;;12.90;99.90;;;;;;5046759;28;20406;-37
2021/07/03 03:27:12;;;;;;;20.80;16.27;;;12.90;99.90;;;;;;5037988;28;20276;-37
2021/07/03 03:29:37;;;;;;;20.93;16.80;;;12.90;99.90;;;;;;5047429;28;20646;-37
2021/07/03 03:32:03;;;;;;;20.27;16.70;;;12.90;99.90;;;;;;5047624;28;21010;-37
2021/07/03 03:34:29;;;;;;;21.87;17.67;;;12.80;99.90;;;;;;5047163;28;20268;-38
2021/07/03 03:36:55;;;;;;;24.80;17.53;;;12.90;99.90;;;;;;5046121;28;20519;-37
2021/07/03 03:39:21;;;;;;;22.60;17.60;;;12.90;99.90;;;;;;5047646;28;20218;-37
2021/07/03 03:41:47;;;;;;;20.60;17.47;;;13.10;99.90;;;;;;5040934;28;20443;-37
2021/07/03 03:44:13;;;;;;;21.90;16.87;;;13.10;99.90;;;;;;5049198;28;20268;-38
2021/07/03 03:46:38;;;;;;;20.30;16.80;;;13.10;99.90;;;;;;5046819;28;20190;-37
2021/07/03 03:49:04;;;;;;;20.07;16.80;;;13.10;99.90;;;;;;5047225;28;20198;-37
2021/07/03 03:51:30;;;;;;;22.10;17.60;;;13.10;99.90;;;;;;5045816;28;20199;-37
2021/07/03 03:53:55;;;;;;;24.80;18.33;;;13.10;99.90;;;;;;5046792;28;20617;-37
2021/07/03 03:56:21;;;;;;;21.70;18.13;;;13.20;99.90;;;;;;5040621;28;20278;-37
2021/07/03 03:58:47;;;;;;;21.77;17.97;;;13.20;99.90;;;;;;5040555;28;20805;-37
2021/07/03 04:01:12;;;;;;;20.13;16.97;;;13.30;99.90;;;;;;5046436;28;20189;-37
2021/07/03 04:03:38;;;;;;;23.17;18.80;;;13.30;99.90;;;;;;5025726;28;20289;-38
2021/07/03 04:06:04;;;;;;;21.40;17.57;;;13.40;99.90;;;;;;5045664;28;20225;-37
2021/07/03 04:08:30;;;;;;;21.50;17.10;;;13.40;99.90;;;;;;5046903;28;20217;-38
2021/07/03 04:10:56;;;;;;;18.10;15.83;;;13.40;99.90;;;;;;5045709;28;20481;-37
2021/07/03 04:13:22;;;;;;;19.87;16.90;;;13.40;99.90;;;;;;5042821;28;20698;-37
2021/07/03 04:15:47;;;;;;;22.27;16.87;;;13.40;99.90;;;;;;5045089;28;20990;-38
2021/07/03 04:18:13;;;;;;;17.97;15.87;;;13.40;99.90;;;;;;5046508;28;20826;-38
2021/07/03 04:20:39;;;;;;;17.87;15.97;;;13.50;99.90;;;;;;5045685;28;20240;-37
2021/07/03 04:23:05;;;;;;;21.87;16.23;;;13.60;99.90;;;;;;5044629;28;20193;-38
2021/07/03 04:25:31;;;;;;;21.63;16.70;;;13.60;99.90;;;;;;5045417;28;20193;-38
2021/07/03 04:27:56;;;;;;;20.20;16.20;;;13.70;99.90;;;;;;5041430;28;20437;-38
2021/07/03 04:30:22;;;;;;;17.80;15.90;;;13.80;99.90;;;;;;5045028;28;20189;-37
2021/07/03 04:32:48;;;;;;;21.43;16.60;;;13.90;99.90;;;;;;5045869;28;20197;-37
2021/07/03 04:35:15;;;;;;;20.57;15.93;;;14.00;99.90;;;;;;5045155;28;20292;-38
2021/07/03 04:37:41;;;;;;;19.87;16.40;;;14.00;99.90;;;;;;5046384;28;20500;-38
2021/07/03 04:40:08;;;;;;;18.23;16.33;;;14.10;99.90;;;;;;5046552;28;20455;-38
2021/07/03 04:42:35;;;;;;;18.30;16.40;;;14.10;99.90;;;;;;5038805;28;20218;-37
2021/07/03 04:45:00;;;;;;;18.07;16.17;;;14.20;99.90;;;;;;5045146;28;20839;-38
2021/07/03 04:47:26;;;;;;;20.27;16.80;;;14.30;99.90;;;;;;5046723;28;20460;-37
2021/07/03 04:49:51;;;;;;;19.73;15.70;;;14.50;99.90;;;;;;5045093;28;20228;-37
2021/07/03 04:52:17;;;;;;;20.90;17.10;;;14.50;99.90;;;;;;5045413;28;20263;-37
2021/07/03 04:54:43;;;;;;;19.27;15.70;;;14.60;99.90;;;;;;5045485;28;20753;-38
2021/07/03 04:57:11;;;;;;;18.63;16.37;;;14.60;99.90;;;;;;5037200;28;20194;-37
2021/07/03 04:59:41;;;;;;;18.53;15.57;;;14.70;99.90;;;;;;5043136;28;20413;-38
2021/07/03 05:02:09;;;;;;;18.90;15.93;;;14.70;99.90;;;;;;5046600;28;21014;-37
2021/07/03 05:04:36;;;;;;;19.53;15.10;;;14.80;99.90;;;;;;5045482;28;20482;-37
2021/07/03 05:07:02;;;;;;;17.73;15.80;;;14.80;99.90;;;;;;5056462;28;20430;-38
2021/07/03 05:09:28;;;;;;;18.67;16.47;;;14.90;99.90;;;;;;5066121;28;20516;-37
2021/07/03 05:11:54;;;;;;;18.47;15.10;;;15.00;99.90;;;;;;5052668;28;20441;-37
2021/07/03 05:14:20;;;;;;;19.17;16.73;;;15.00;99.90;;;;;;5041906;28;20431;-37
2021/07/03 05:16:45;;;;;;;17.97;15.40;;;15.20;99.90;;;;;;5046079;28;20246;-37
2021/07/03 05:19:11;;;;;;;18.57;16.53;;;15.30;99.90;;;;;;5051857;28;20251;-37
2021/07/03 05:21:37;;;;;;;18.70;16.10;;;15.30;99.90;;;;;;5061159;28;20198;-37
2021/07/03 05:24:03;;;;;;;17.60;14.80;;;15.50;99.90;;;;;;5052003;28;20262;-37
2021/07/03 05:26:28;;;;;;;16.73;14.90;;;15.60;99.90;;;;;;5062461;28;20510;-38
2021/07/03 05:28:54;;;;;;;14.83;13.17;;;15.80;99.90;;;;;;5037951;28;20587;-38
2021/07/03 05:31:20;;;;;;;15.77;14.07;;;15.90;99.90;;;;;;5045704;28;20604;-38
2021/07/03 05:33:45;;;;;;;14.93;13.43;;;16.10;99.90;;;;;;5045244;28;20288;-38
2021/07/03 05:36:11;;;;;;;13.93;12.50;;;16.20;99.90;;;;;;5045600;28;20201;-38
2021/07/03 05:38:46;;;;;;;15.63;13.53;;;16.40;99.90;;;;;;5046090;28;20241;-38
2021/07/03 05:41:13;;;;;;;14.60;13.17;;;16.50;99.90;;;;;;5045342;28;20197;-38
2021/07/03 05:43:39;;;;;;;14.20;12.80;;;16.60;99.90;;;;;;5033589;28;20440;-38
2021/07/03 05:46:06;;;;;;;17.07;14.40;;;16.70;99.90;;;;;;5048589;28;20427;-37
2021/07/03 05:48:33;;;;;;;16.20;14.63;;;16.80;99.90;;;;;;5049778;28;20488;-38
2021/07/03 05:50:59;;;;;;;15.70;14.00;;;17.00;99.90;;;;;;5047869;28;20442;-38
2021/07/03 05:53:24;;;;;;;18.23;14.43;;;17.10;99.90;;;;;;5047517;28;20475;-38
2021/07/03 05:55:50;;;;;;;14.60;13.07;;;17.20;99.90;;;;;;5047787;28;20189;-38
2021/07/03 05:58:15;;;;;;;15.50;13.90;;;17.20;99.90;;;;;;5038456;28;20214;-38
2021/07/03 06:00:41;;;;;;;13.30;12.00;;;17.30;99.90;;;;;;5047186;28;20263;-38
2021/07/03 06:03:07;;;;;;;14.27;12.70;;;17.50;99.90;;;;;;5048753;28;20189;-38
2021/07/03 06:05:33;;;;;;;13.20;11.70;;;17.60;99.90;;;;;;5049171;28;20194;-38
2021/07/03 06:07:58;;;;;;;13.80;12.30;;;17.70;99.90;;;;;;5047765;28;20221;-38
2021/07/03 06:10:24;;;;;;;12.37;11.03;;;17.60;99.90;;;;;;5049038;28;20784;-38
2021/07/03 06:12:50;;;;;;;12.70;11.17;;;17.60;99.90;;;;;;5041547;28;20205;-38
2021/07/03 06:15:15;;;;;;;13.17;11.40;;;17.70;99.90;;;;;;5043586;28;20204;-38
2021/07/03 06:17:42;;;;;;;13.63;12.33;;;17.80;99.90;;;;;;5048854;28;20225;-38
2021/07/03 06:20:09;;;;;;;12.30;11.10;;;17.80;99.90;;;;;;5049087;28;20416;-38
2021/07/03 06:22:36;;;;;;;12.67;11.03;;;17.90;99.90;;;;;;5048793;28;20455;-38
2021/07/03 06:25:03;;;;;;;12.47;11.27;;;18.00;99.90;;;;;;5046861;28;20960;-37
2021/07/03 06:27:29;;;;;;;13.93;11.07;;;18.10;99.90;;;;;;5043513;28;20507;-38
2021/07/03 06:29:55;;;;;;;14.87;11.23;;;18.20;99.90;;;;;;5047785;28;20477;-37
2021/07/03 06:32:20;;;;;;;12.07;10.73;;;18.40;99.90;;;;;;5048875;28;20197;-38
2021/07/03 06:34:46;;;;;;;12.17;10.97;;;18.60;99.90;;;;;;5047440;28;20197;-38
2021/07/03 06:37:12;;;;;;;12.63;11.33;;;18.70;99.90;;;;;;5048429;28;20231;-38
2021/07/03 06:39:37;;;;;;;11.57;10.50;;;18.90;99.90;;;;;;5047975;28;20531;-38
2021/07/03 06:42:03;;;;;;;12.30;11.10;;;19.00;99.90;;;;;;5067690;28;20415;-38
2021/07/03 06:44:29;;;;;;;12.60;11.30;;;19.20;99.90;;;;;;5041825;28;20185;-38
2021/07/03 06:46:55;;;;;;;14.47;11.17;;;19.30;99.90;;;;;;5048079;28;20209;-37
2021/07/03 06:49:20;;;;;;;12.93;11.63;;;19.50;99.90;;;;;;5049582;28;20248;-38
2021/07/03 06:51:46;;;;;;;12.40;11.23;;;19.70;99.90;;;;;;5048212;28;20200;-38
2021/07/03 06:54:12;;;;;;;13.13;11.23;;;19.90;99.90;;;;;;5047358;28;20272;-37
2021/07/03 06:56:38;;;;;;;14.83;13.43;;;20.20;99.90;;;;;;5047360;28;20726;-38
2021/07/03 06:59:04;;;;;;;13.90;12.50;;;20.30;99.90;;;;;;5035939;28;20224;-38
2021/07/03 07:01:29;;;;;;;14.47;12.97;;;20.40;99.90;;;;;;5048167;28;20174;-38
2021/07/03 07:03:55;;;;;;;13.57;12.17;;;20.60;99.90;;;;;;5047444;28;20420;-37
2021/07/03 07:06:21;;;;;;;13.67;12.37;;;20.70;99.90;;;;;;5048062;28;20660;-38
2021/07/03 07:08:46;;;;;;;13.60;12.37;;;20.80;99.90;;;;;;5047819;28;20209;-38
2021/07/03 07:11:12;;;;;;;14.70;13.30;;;20.90;99.90;;;;;;5046765;28;20217;-38
2021/07/03 07:13:38;;;;;;;14.07;12.87;;;21.00;99.90;;;;;;5036777;28;20299;-38
2021/07/03 07:16:04;;;;;;;13.47;12.27;;;21.20;99.90;;;;;;5046190;28;20195;-38
2021/07/03 07:18:29;;;;;;;14.33;12.83;;;21.20;99.90;;;;;;5047712;28;20656;-38
2021/07/03 07:20:55;;;;;;;17.60;14.13;;;21.20;99.90;;;;;;5046332;28;20424;-37
2021/07/03 07:23:22;;;;;;;15.70;14.07;;;21.20;99.90;;;;;;5045574;28;20549;-37
2021/07/03 07:25:50;;;;;;;15.33;13.87;;;21.20;99.90;;;;;;5048036;28;20426;-38
2021/07/03 07:28:16;;;;;;;16.40;14.90;;;21.10;99.90;;;;;;5040927;28;20218;-38
2021/07/03 07:30:42;;;;;;;15.33;13.83;;;21.20;99.90;;;;;;5046804;28;20427;-38
2021/07/03 07:33:07;;;;;;;15.13;13.70;;;21.40;99.90;;;;;;5046933;28;20435;-38
2021/07/03 07:35:33;;;;;;;15.60;14.10;;;21.60;99.90;;;;;;5047609;28;20273;-38
2021/07/03 07:37:59;;;;;;;16.63;14.93;;;21.60;99.90;;;;;;5047402;28;20263;-38
2021/07/03 07:40:25;;;;;;;15.37;13.93;;;21.70;99.90;;;;;;5047513;28;20432;-38
2021/07/03 07:42:50;;;;;;;18.63;14.80;;;21.80;99.90;;;;;;5042166;28;20201;-38
2021/07/03 07:45:16;;;;;;;17.57;15.73;;;22.00;99.90;;;;;;5042444;28;20679;-38
2021/07/03 07:47:42;;;;;;;17.00;15.23;;;22.10;99.90;;;;;;5045968;28;20212;-38
2021/07/03 07:50:08;;;;;;;16.13;14.53;;;22.20;99.90;;;;;;5046070;28;20193;-38
2021/07/03 07:52:34;;;;;;;15.70;14.20;;;22.30;99.90;;;;;;5046825;28;20196;-38
2021/07/03 07:55:00;;;;;;;15.93;13.20;;;22.30;99.90;;;;;;5046799;28;20436;-38
2021/07/03 07:57:26;;;;;;;13.77;12.40;;;22.30;99.90;;;;;;5047175;28;20676;-38
2021/07/03 07:59:52;;;;;;;13.93;12.60;;;22.30;99.90;;;;;;5033201;28;20856;-38
2021/07/03 08:02:18;;;;;;;14.00;12.63;;;22.30;99.90;;;;;;5046792;28;20417;-38
2021/07/03 08:04:43;;;;;;;13.80;12.60;;;22.40;99.90;;;;;;5046576;28;20424;-38
2021/07/03 08:07:09;;;;;;;14.60;13.17;;;22.30;99.90;;;;;;5045325;28;20644;-38
2021/07/03 08:09:35;;;;;;;15.10;12.70;;;22.30;99.90;;;;;;5046689;28;20202;-38
2021/07/03 08:12:01;;;;;;;14.17;12.77;;;22.20;99.90;;;;;;5044005;28;20432;-38
2021/07/03 08:14:27;;;;;;;13.37;11.93;;;22.20;99.90;;;;;;5032911;28;20198;-38
2021/07/03 08:16:52;;;;;;;13.23;11.90;;;22.20;99.90;;;;;;5045925;28;20201;-38
2021/07/03 08:19:18;;;;;;;12.93;11.67;;;22.20;99.90;;;;;;5046729;28;20248;-38
2021/07/03 08:21:44;;;;;;;14.93;11.10;;;22.10;99.90;;;;;;5044993;28;20234;-38
2021/07/03 08:24:10;;;;;;;11.10;10.07;;;22.00;99.90;;;;;;5044818;28;20215;-39
2021/07/03 08:26:36;;;;;;;14.17;12.87;;;22.00;99.90;;;;;;5046465;28;20428;-38
2021/07/03 08:29:03;;;;;;;11.40;10.30;;;21.90;99.90;;;;;;5037647;28;20440;-38
2021/07/03 08:31:30;;;;;;;13.00;11.70;;;22.00;99.90;;;;;;5042675;28;20460;-38
2021/07/03 08:33:55;;;;;;;13.53;11.90;;;22.10;99.90;;;;;;5045751;28;20429;-38
2021/07/03 08:36:21;;;;;;;14.07;12.80;;;22.30;99.90;;;;;;5045107;28;20424;-38
2021/07/03 08:38:47;;;;;;;12.40;11.07;;;22.30;99.90;;;;;;5046493;28;20232;-38
2021/07/03 08:41:13;;;;;;;13.43;12.00;;;22.50;99.90;;;;;;5046510;28;20443;-39
2021/07/03 08:43:45;;;;;;;12.17;10.80;;;22.60;99.90;;;;;;5040421;28;20198;-39
2021/07/03 08:46:11;;;;;;;13.73;11.70;;;22.70;99.90;;;;;;5043660;28;20241;-38
2021/07/03 08:48:37;;;;;;;10.73;9.73;;;22.80;99.90;;;;;;5045799;28;20425;-38
2021/07/03 08:51:03;;;;;;;10.77;8.97;;;22.80;99.90;;;;;;5046355;28;20424;-39
2021/07/03 08:53:28;;;;;;;12.37;11.07;;;22.80;99.90;;;;;;5046311;28;20189;-38
2021/07/03 08:55:54;;;;;;;11.73;10.53;;;23.00;99.90;;;;;;5046386;28;20660;-39
2021/07/03 08:58:20;;;;;;;11.47;10.30;;;23.20;99.90;;;;;;5042815;28;22040;-39
2021/07/03 09:00:47;;;;;;;11.17;10.00;;;23.30;99.90;;;;;;5037144;28;20466;-38
2021/07/03 09:03:16;;;;;;;12.87;11.63;;;23.40;99.90;;;;;;5044289;28;20182;-38
2021/07/03 09:05:50;;;;;;;14.10;10.90;;;23.50;99.90;;;;;;5046282;28;20424;-39
2021/07/03 09:08:17;;;;;;;12.03;10.77;;;23.50;99.90;;;;;;5046113;28;20456;-39
2021/07/03 09:10:43;;;;;;;11.43;10.33;;;23.60;99.90;;;;;;5045957;28;20428;-39
2021/07/03 09:13:09;;;;;;;10.03;9.10;;;23.70;99.90;;;;;;5043465;28;20938;-38
2021/07/03 09:15:39;;;;;;;10.23;9.13;;;23.70;99.90;;;;;;5035151;28;20420;-38
2021/07/03 09:18:07;;;;;;;11.00;9.90;;;23.60;99.90;;;;;;5045724;28;21342;-38
2021/07/03 09:20:36;;;;;;;9.67;8.63;;;23.60;99.90;;;;;;5047923;28;20487;-38
2021/07/03 09:23:07;;;;;;;10.97;9.87;;;23.70;99.90;;;;;;5048136;28;20889;-39
2021/07/03 09:25:35;;;;;;;10.40;8.07;;;23.80;99.90;;;;;;5048673;28;20519;-38
2021/07/03 09:28:14;;;;;;;10.43;8.83;;;23.90;99.90;;;;;;5048761;28;20424;-39
2021/07/03 09:30:42;;;;;;;11.00;8.10;;;23.90;99.90;;;;;;5040676;28;20524;-38
2021/07/03 09:33:08;;;;;;;10.43;8.80;;;23.90;99.90;;;;;;5049213;28;20762;-39
2021/07/03 09:35:34;;;;;;;9.60;8.70;;;24.10;99.90;;;;;;5049862;28;20569;-38
2021/07/03 09:38:05;;;;;;;10.63;9.53;;;24.30;99.90;;;;;;5049869;28;20455;-39
2021/07/03 09:40:36;;;;;;;10.73;9.67;;;24.40;99.90;;;;;;5049593;28;20424;-38
2021/07/03 09:43:07;;;;;;;9.77;8.83;;;24.40;99.90;;;;;;5048741;28;20431;-39
2021/07/03 09:45:34;;;;;;;10.47;9.37;;;24.40;99.90;;;;;;5039459;28;20436;-38
2021/07/03 09:48:08;;;;;;;10.03;9.20;;;24.50;99.90;;;;;;5049700;28;20424;-38
2021/07/03 09:50:34;;;;;;;10.90;9.80;;;24.50;99.90;;;;;;5048209;28;20496;-38
2021/07/03 09:53:01;;;;;;;10.07;9.10;;;24.70;99.90;;;;;;5048557;28;20478;-39
2021/07/03 09:55:27;;;;;;;10.97;9.80;;;24.80;99.90;;;;;;5049087;28;20451;-38
2021/07/03 09:57:52;;;;;;;8.37;7.67;;;24.80;99.90;;;;;;5049685;28;20518;-39
2021/07/03 10:00:18;;;;;;;10.43;9.43;;;24.70;99.90;;;;;;5035033;28;20179;-39
2021/07/03 10:02:44;;;;;;;9.10;8.20;;;24.70;99.30;;;;;;5047643;28;20251;-38
2021/07/03 10:05:11;;;;;;;9.93;9.03;;;24.60;99.90;;;;;;5048585;28;20432;-39
2021/07/03 10:07:42;;;;;;;8.50;7.70;;;24.50;99.00;;;;;;5048772;28;20347;-39
2021/07/03 10:10:17;;;;;;;11.10;8.20;;;24.50;99.60;;;;;;5049277;28;20428;-38
2021/07/03 10:12:47;;;;;;;8.80;7.50;;;24.50;99.90;;;;;;5048162;28;20605;-38
2021/07/03 10:15:15;;;;;;;8.53;7.73;;;24.50;99.80;;;;;;5035851;28;21010;-38
2021/07/03 10:17:40;;;;;;;8.20;7.50;;;24.40;99.30;;;;;;5047222;28;20829;-39
2021/07/03 10:20:15;;;;;;;8.53;7.73;;;24.50;99.00;;;;;;5048961;28;20428;-39
2021/07/03 10:22:52;;;;;;;10.77;9.87;;;24.60;99.40;;;;;;5048599;28;20189;-39
2021/07/03 10:25:19;;;;;;;8.23;7.43;;;24.70;98.00;;;;;;5048880;28;20464;-39
2021/07/03 10:27:52;;;;;;;7.67;6.97;;;24.90;98.60;;;;;;5048602;28;20481;-38
2021/07/03 10:30:26;;;;;;;8.97;7.83;;;25.00;98.20;;;;;;5036794;28;20433;-38
2021/07/03 10:33:00;;;;;;;10.70;8.07;;;25.00;97.80;;;;;;5045699;28;20910;-38
2021/07/03 10:35:27;;;;;;;8.30;7.37;;;24.90;97.40;;;;;;5048233;28;20516;-38
2021/07/03 10:37:55;;;;;;;7.87;7.20;;;25.00;98.20;;;;;;5048287;28;20494;-38
2021/07/03 10:40:24;;;;;;;10.20;8.40;;;25.10;98.20;;;;;;5048767;28;20835;-38
2021/07/03 10:42:52;;;;;;;7.70;7.10;;;25.00;97.80;;;;;;5047692;28;20832;-38
2021/07/03 10:45:23;;;;;;;9.03;8.23;;;24.90;98.10;;;;;;5040238;28;20555;-38
2021/07/03 10:47:53;;;;;;;7.93;7.23;;;24.90;97.90;;;;;;5047299;28;20877;-38
2021/07/03 10:50:28;;;;;;;7.80;7.10;;;25.00;99.10;;;;;;5048674;28;20528;-39
2021/07/03 10:52:55;;;;;;;6.63;6.03;;;25.10;98.10;;;;;;5047681;28;20435;-38
2021/07/03 10:55:29;;;;;;;11.07;7.70;;;25.20;97.30;;;;;;5048308;28;20432;-39
2021/07/03 10:57:55;;;;;;;7.57;6.83;;;25.30;97.10;;;;;;5048100;28;20697;-39
2021/07/03 11:00:25;;;;;;;7.10;6.50;;;25.50;97.70;;;;;;5036055;28;20489;-39
2021/07/03 11:02:51;;;;;;;6.90;6.27;;;25.60;96.70;;;;;;5045457;28;20428;-38
2021/07/03 11:05:18;;;;;;;7.20;6.60;;;25.60;96.40;;;;;;5046714;28;20851;-39
2021/07/03 11:07:48;;;;;;;7.70;6.90;;;25.70;97.40;;;;;;5047765;28;20440;-38
2021/07/03 11:10:26;;;;;;;8.10;7.23;;;25.80;96.90;;;;;;5047950;28;20531;-39
2021/07/03 11:12:54;;;;;;;7.67;6.87;;;25.90;96.70;;;;;;5045413;28;20529;-38
2021/07/03 11:15:23;;;;;;;7.17;6.47;;;25.90;97.60;;;;;;5043517;28;20444;-39
2021/07/03 11:17:50;;;;;;;6.83;6.23;;;26.00;97.20;;;;;;5047862;28;20893;-39
2021/07/03 11:20:27;;;;;;;6.03;5.50;;;26.10;95.10;;;;;;5047700;28;20423;-40
2021/07/03 11:22:54;;;;;;;6.63;6.03;;;26.10;94.90;;;;;;5045748;28;20427;-39
2021/07/03 11:25:26;;;;;;;6.90;6.30;;;26.20;96.30;;;;;;5047807;28;20417;-40
2021/07/03 11:27:51;;;;;;;6.23;5.63;;;26.00;95.80;;;;;;5046357;28;20945;-39
2021/07/03 11:30:19;;;;;;;6.40;5.80;;;26.00;95.70;;;;;;5043336;28;20444;-39
2021/07/03 11:32:56;;;;;;;7.30;6.70;;;26.10;97.00;;;;;;5045948;28;20193;-40
2021/07/03 11:35:23;;;;;;;9.23;7.10;;;26.10;95.30;;;;;;5047029;28;20718;-39
2021/07/03 11:37:49;;;;;;;6.97;6.27;;;26.00;94.70;;;;;;5047363;28;20467;-39
2021/07/03 11:40:22;;;;;;;6.13;5.63;;;25.90;94.80;;;;;;5046137;28;20420;-38
2021/07/03 11:42:50;;;;;;;6.20;5.70;;;25.80;93.70;;;;;;5046414;28;20447;-39
2021/07/03 11:45:18;;;;;;;6.97;6.23;;;25.70;95.90;;;;;;5038802;28;20433;-41
2021/07/03 11:47:52;;;;;;;6.20;5.60;;;25.70;97.30;;;;;;5045215;28;20485;-39
2021/07/03 11:50:21;;;;;;;6.13;5.60;;;25.70;96.10;;;;;;5047293;28;20469;-39
2021/07/03 11:52:50;;;;;;;6.10;5.60;;;25.80;96.60;;;;;;5045767;28;20428;-39
2021/07/03 11:55:22;;;;;;;6.17;5.67;;;25.90;94.50;;;;;;5046015;28;20435;-39
2021/07/03 11:57:49;;;;;;;5.50;5.00;;;26.00;95.30;;;;;;5047302;28;20467;-39
2021/07/03 12:00:19;;;;;;;5.53;5.13;;;26.20;95.40;;;;;;5040021;28;20436;-39
2021/07/03 12:02:45;;;;;;;5.80;5.30;;;26.30;95.10;;;;;;5045005;28;20433;-38
2021/07/03 12:05:13;;;;;;;6.17;5.67;;;26.40;94.70;;;;;;5047041;28;20427;-39
2021/07/03 12:07:40;;;;;;;6.53;5.93;;;26.20;94.50;;;;;;5046673;28;20431;-39
2021/07/03 12:10:08;;;;;;;6.63;5.90;;;26.00;93.80;;;;;;5047073;28;20539;-39
2021/07/03 12:12:34;;;;;;;6.10;5.50;;;25.90;93.00;;;;;;5045569;28;20969;-39
2021/07/03 12:15:07;;;;;;;5.87;5.40;;;25.90;94.70;;;;;;5041000;28;20839;-39
2021/07/03 12:17:32;;;;;;;6.40;5.80;;;25.70;94.10;;;;;;5045586;28;20773;-39
2021/07/03 12:20:08;;;;;;;6.10;5.60;;;25.60;95.40;;;;;;5046862;28;20431;-39
2021/07/03 12:22:33;;;;;;;7.00;6.30;;;25.60;96.20;;;;;;5033853;28;20190;-39
2021/07/03 12:25:16;;;;;;;6.20;5.70;;;25.70;96.70;;;;;;5046068;28;20773;-39
2021/07/03 12:27:51;;;;;;;6.33;5.77;;;25.90;95.30;;;;;;5046525;28;20287;-39
2021/07/03 12:30:19;;;;;;;6.50;5.90;;;26.20;96.30;;;;;;5041845;28;20431;-39